SHT9PL EGNT-EGKK
Flight info
| Callsign | SHT9PL |
|---|---|
| Flight time | 0h 50m |
| Altitude | 27000 |
| Route | GIRLI P18 GASKO P16 RIBEL UP16 CROFT DCT KEPAD L151 DISIT |
| Aircraft | A319/M-SDE3FGHIRWY/LB1 |
Departure
| Time | 2026-05-04 09:29 |
|---|---|
| Airport | Newcastle International Airport (EGNT) |
Arrival
| Time | 2026-05-04 10:19 |
|---|---|
| Airport | London Gatwick Airport (EGKK) |
| Time | Latitude | Longitude | Altitude | Speed | Heading |
|---|---|---|---|---|---|
| 2026-05-04 09:10 | 55.03662 | -1.70711 | 261 ft | 0 kts | 4° |
| 2026-05-04 09:23 | 55.03648 | -1.70713 | 261 ft | 4 kts | 4° |
| 2026-05-04 09:25 | 55.03597 | -1.70778 | 262 ft | 0 kts | 94° |
| 2026-05-04 09:26 | 55.03597 | -1.70777 | 262 ft | 1 kts | 94° |
| 2026-05-04 09:27 | 55.03596 | -1.70760 | 262 ft | 2 kts | 94° |
| 2026-05-04 09:27 | 55.03595 | -1.70725 | 262 ft | 4 kts | 94° |
| 2026-05-04 09:27 | 55.03581 | -1.70660 | 261 ft | 7 kts | 138° |
| 2026-05-04 09:27 | 55.03523 | -1.70647 | 262 ft | 10 kts | 180° |
| 2026-05-04 09:28 | 55.03437 | -1.70643 | 262 ft | 14 kts | 170° |
| 2026-05-04 09:28 | 55.03390 | -1.70521 | 261 ft | 14 kts | 81° |
| 2026-05-04 09:28 | 55.03431 | -1.70344 | 258 ft | 25 kts | 66° |
| 2026-05-04 09:28 | 55.03595 | -1.69728 | 251 ft | 87 kts | 65° |
| 2026-05-04 09:29 | 55.03934 | -1.68454 | 243 ft | 143 kts | 65° |
| 2026-05-04 09:29 | 55.04393 | -1.66843 | 737 ft | 143 kts | 60° |
| 2026-05-04 09:29 | 55.04840 | -1.65298 | 1351 ft | 141 kts | 63° |
| 2026-05-04 09:29 | 55.05220 | -1.63823 | 1957 ft | 131 kts | 64° |
| 2026-05-04 09:30 | 55.05610 | -1.62071 | 1857 ft | 187 kts | 71° |
| 2026-05-04 09:30 | 55.05961 | -1.59471 | 1564 ft | 255 kts | 81° |
| 2026-05-04 09:30 | 55.06047 | -1.55903 | 820 ft | 334 kts | 97° |
| 2026-05-04 09:30 | 55.05352 | -1.52551 | 3003 ft | 262 kts | 130° |
| 2026-05-04 09:31 | 55.03995 | -1.50813 | 4924 ft | 240 kts | 161° |
| 2026-05-04 09:31 | 55.02297 | -1.50481 | 5411 ft | 259 kts | 189° |
| 2026-05-04 09:31 | 55.00489 | -1.51085 | 6181 ft | 268 kts | 194° |
| 2026-05-04 09:31 | 54.98661 | -1.51869 | 7084 ft | 272 kts | 204° |
| 2026-05-04 09:32 | 54.97007 | -1.53492 | 7998 ft | 274 kts | 216° |
| 2026-05-04 09:32 | 54.95455 | -1.55454 | 8908 ft | 278 kts | 218° |
| 2026-05-04 09:34 | 54.81905 | -1.69296 | 12983 ft | 357 kts | 212° |
| 2026-05-04 09:34 | 54.79771 | -1.71471 | 13669 ft | 361 kts | 212° |
| 2026-05-04 09:34 | 54.77594 | -1.73692 | 14362 ft | 364 kts | 212° |
| 2026-05-04 09:34 | 54.75400 | -1.75934 | 15021 ft | 368 kts | 212° |
| 2026-05-04 09:35 | 54.73175 | -1.78204 | 15654 ft | 372 kts | 211° |
| 2026-05-04 09:35 | 54.70809 | -1.80113 | 16271 ft | 378 kts | 201° |
| 2026-05-04 09:35 | 54.68248 | -1.81235 | 16905 ft | 382 kts | 191° |
| 2026-05-04 09:35 | 54.65649 | -1.82032 | 17515 ft | 385 kts | 191° |
| 2026-05-04 09:37 | 54.47517 | -1.87784 | 21301 ft | 408 kts | 192° |
| 2026-05-04 09:37 | 54.43797 | -1.88957 | 21917 ft | 413 kts | 192° |
| 2026-05-04 09:38 | 54.41918 | -1.89546 | 22218 ft | 415 kts | 192° |
| 2026-05-04 09:38 | 54.39062 | -1.90436 | 22691 ft | 418 kts | 192° |
| 2026-05-04 09:38 | 54.36181 | -1.91329 | 23145 ft | 420 kts | 191° |
| 2026-05-04 09:38 | 54.33290 | -1.92229 | 23564 ft | 424 kts | 192° |
| 2026-05-04 09:39 | 54.30376 | -1.93137 | 24018 ft | 426 kts | 192° |
| 2026-05-04 09:39 | 54.27484 | -1.94041 | 24438 ft | 429 kts | 192° |
| 2026-05-04 09:39 | 54.24603 | -1.95401 | 24805 ft | 431 kts | 202° |
| 2026-05-04 09:39 | 54.21887 | -1.97591 | 25202 ft | 432 kts | 212° |
| 2026-05-04 09:40 | 54.19423 | -2.00542 | 25600 ft | 433 kts | 221° |
| 2026-05-04 09:40 | 54.17210 | -2.04048 | 25987 ft | 435 kts | 225° |
| 2026-05-04 09:40 | 54.15034 | -2.07570 | 26363 ft | 437 kts | 224° |
| 2026-05-04 09:40 | 54.12813 | -2.11138 | 26731 ft | 439 kts | 224° |
| 2026-05-04 09:41 | 54.10578 | -2.14712 | 26963 ft | 441 kts | 224° |
| 2026-05-04 09:42 | 53.92842 | -2.34623 | 27011 ft | 444 kts | 202° |
| 2026-05-04 09:43 | 53.89950 | -2.36476 | 27008 ft | 443 kts | 202° |
| 2026-05-04 09:43 | 53.87063 | -2.38327 | 27011 ft | 443 kts | 202° |
| 2026-05-04 09:43 | 53.84173 | -2.40182 | 27005 ft | 443 kts | 202° |
| 2026-05-04 09:43 | 53.81319 | -2.42016 | 27007 ft | 443 kts | 202° |
| 2026-05-04 09:44 | 53.78436 | -2.43863 | 27005 ft | 443 kts | 202° |
| 2026-05-04 09:44 | 53.75549 | -2.45705 | 27000 ft | 443 kts | 202° |
| 2026-05-04 09:44 | 53.72665 | -2.47543 | 26998 ft | 443 kts | 202° |
| 2026-05-04 09:46 | 53.51565 | -2.53031 | 27003 ft | 447 kts | 179° |
| 2026-05-04 09:46 | 53.48447 | -2.52797 | 27004 ft | 447 kts | 179° |
| 2026-05-04 09:46 | 53.45336 | -2.52574 | 27005 ft | 447 kts | 179° |
| 2026-05-04 09:47 | 53.42227 | -2.52353 | 27007 ft | 447 kts | 179° |
| 2026-05-04 09:47 | 53.39154 | -2.52131 | 27007 ft | 447 kts | 179° |
| 2026-05-04 09:49 | 53.17429 | -2.50545 | 27005 ft | 446 kts | 179° |
| 2026-05-04 09:49 | 53.14318 | -2.50314 | 27005 ft | 447 kts | 179° |
| 2026-05-04 09:49 | 53.11216 | -2.50085 | 27006 ft | 447 kts | 179° |
| 2026-05-04 09:51 | 52.92619 | -2.48733 | 27007 ft | 447 kts | 179° |
| 2026-05-04 09:51 | 52.89507 | -2.48510 | 27008 ft | 447 kts | 179° |
| 2026-05-04 09:51 | 52.86398 | -2.48284 | 27010 ft | 447 kts | 178° |
| 2026-05-04 09:51 | 52.83305 | -2.47668 | 27009 ft | 448 kts | 169° |
| 2026-05-04 09:52 | 52.80306 | -2.46222 | 27007 ft | 450 kts | 160° |
| 2026-05-04 09:52 | 52.77485 | -2.43985 | 27007 ft | 451 kts | 150° |
| 2026-05-04 09:52 | 52.74855 | -2.41134 | 27006 ft | 451 kts | 147° |
| 2026-05-04 09:52 | 52.72283 | -2.38271 | 27005 ft | 451 kts | 147° |
| 2026-05-04 09:53 | 52.69668 | -2.35378 | 27004 ft | 452 kts | 147° |
| 2026-05-04 09:53 | 52.67051 | -2.32503 | 27002 ft | 452 kts | 147° |
| 2026-05-04 09:53 | 52.64427 | -2.29634 | 27004 ft | 452 kts | 147° |
| 2026-05-04 09:53 | 52.61802 | -2.26771 | 27003 ft | 452 kts | 147° |
| 2026-05-04 09:54 | 52.59213 | -2.23945 | 27002 ft | 452 kts | 147° |
| 2026-05-04 09:54 | 52.56599 | -2.21089 | 27000 ft | 452 kts | 147° |
| 2026-05-04 09:54 | 52.53978 | -2.18228 | 27003 ft | 452 kts | 147° |
| 2026-05-04 09:54 | 52.51359 | -2.15372 | 27002 ft | 451 kts | 147° |
| 2026-05-04 09:55 | 52.48740 | -2.12514 | 27000 ft | 451 kts | 147° |
| 2026-05-04 09:55 | 52.46127 | -2.09666 | 26999 ft | 451 kts | 147° |
| 2026-05-04 09:55 | 52.43499 | -2.06810 | 26998 ft | 451 kts | 147° |
| 2026-05-04 09:55 | 52.40909 | -2.04008 | 26996 ft | 451 kts | 147° |
| 2026-05-04 09:56 | 52.38283 | -2.01169 | 26994 ft | 451 kts | 147° |
| 2026-05-04 09:56 | 52.35655 | -1.98324 | 26968 ft | 452 kts | 147° |
| 2026-05-04 09:56 | 52.33038 | -1.95496 | 26519 ft | 450 kts | 147° |
| 2026-05-04 09:56 | 52.30458 | -1.92718 | 25754 ft | 449 kts | 148° |
| 2026-05-04 09:57 | 52.27853 | -1.89917 | 24990 ft | 447 kts | 148° |
| 2026-05-04 09:57 | 52.25264 | -1.87136 | 24243 ft | 444 kts | 148° |
| 2026-05-04 09:57 | 52.22691 | -1.84376 | 23507 ft | 441 kts | 148° |
| 2026-05-04 09:57 | 52.20142 | -1.81647 | 22784 ft | 437 kts | 148° |
| 2026-05-04 09:58 | 52.17612 | -1.78944 | 22066 ft | 432 kts | 148° |
| 2026-05-04 09:58 | 52.15111 | -1.76272 | 21358 ft | 428 kts | 148° |
| 2026-05-04 09:58 | 52.12629 | -1.73626 | 20663 ft | 423 kts | 148° |
| 2026-05-04 10:00 | 51.95555 | -1.55499 | 17787 ft | 413 kts | 148° |
| 2026-05-04 10:00 | 51.93147 | -1.52957 | 17426 ft | 411 kts | 148° |
| 2026-05-04 10:02 | 51.76691 | -1.35667 | 15015 ft | 396 kts | 148° |
| 2026-05-04 10:04 | 51.60690 | -1.19012 | 13248 ft | 387 kts | 148° |
| 2026-05-04 10:04 | 51.58458 | -1.16692 | 13006 ft | 385 kts | 148° |
| 2026-05-04 10:04 | 51.56214 | -1.14370 | 12744 ft | 384 kts | 148° |
| 2026-05-04 10:04 | 51.54008 | -1.12095 | 12445 ft | 364 kts | 148° |
| 2026-05-04 10:05 | 51.51951 | -1.09967 | 12208 ft | 344 kts | 148° |
| 2026-05-04 10:05 | 51.49918 | -1.07869 | 11506 ft | 347 kts | 148° |
| 2026-05-04 10:05 | 51.47953 | -1.05838 | 11340 ft | 324 kts | 148° |
| 2026-05-04 10:05 | 51.46121 | -1.03945 | 11217 ft | 303 kts | 149° |
| 2026-05-04 10:06 | 51.44378 | -1.02145 | 10848 ft | 294 kts | 149° |
| 2026-05-04 10:06 | 51.42664 | -1.00383 | 10341 ft | 290 kts | 149° |
| 2026-05-04 10:06 | 51.40970 | -0.98647 | 9815 ft | 288 kts | 149° |
| 2026-05-04 10:08 | 51.31879 | -0.89364 | 8077 ft | 231 kts | 149° |
| 2026-05-04 10:08 | 51.30536 | -0.87993 | 7707 ft | 226 kts | 149° |
| 2026-05-04 10:08 | 51.29231 | -0.86658 | 7403 ft | 219 kts | 149° |
| 2026-05-04 10:08 | 51.27955 | -0.85355 | 7110 ft | 217 kts | 149° |
| 2026-05-04 10:09 | 51.26680 | -0.84055 | 6871 ft | 216 kts | 149° |
| 2026-05-04 10:09 | 51.25413 | -0.82764 | 6651 ft | 213 kts | 149° |
| 2026-05-04 10:09 | 51.24207 | -0.81534 | 6396 ft | 205 kts | 149° |
| 2026-05-04 10:09 | 51.23009 | -0.80316 | 6003 ft | 203 kts | 150° |
| 2026-05-04 10:10 | 51.21827 | -0.79118 | 5686 ft | 199 kts | 150° |
| 2026-05-04 10:10 | 51.20657 | -0.77930 | 5318 ft | 199 kts | 150° |
| 2026-05-04 10:10 | 51.19487 | -0.76744 | 4976 ft | 199 kts | 150° |
| 2026-05-04 10:10 | 51.18323 | -0.75567 | 4638 ft | 198 kts | 150° |
| 2026-05-04 10:11 | 51.17185 | -0.74411 | 4463 ft | 189 kts | 150° |
| 2026-05-04 10:11 | 51.16080 | -0.73290 | 4215 ft | 187 kts | 150° |
| 2026-05-04 10:11 | 51.15011 | -0.72207 | 4036 ft | 180 kts | 150° |
| 2026-05-04 10:11 | 51.13976 | -0.71158 | 3990 ft | 175 kts | 150° |
| 2026-05-04 10:12 | 51.12948 | -0.70119 | 3986 ft | 176 kts | 150° |
| 2026-05-04 10:12 | 51.11912 | -0.69073 | 3986 ft | 176 kts | 150° |
| 2026-05-04 10:12 | 51.10879 | -0.68035 | 3986 ft | 176 kts | 150° |
| 2026-05-04 10:12 | 51.09855 | -0.66956 | 3990 ft | 178 kts | 142° |
| 2026-05-04 10:13 | 51.09073 | -0.65432 | 3984 ft | 180 kts | 119° |
| 2026-05-04 10:13 | 51.08719 | -0.63550 | 3993 ft | 181 kts | 95° |
| 2026-05-04 10:13 | 51.08846 | -0.61570 | 4002 ft | 179 kts | 75° |
| 2026-05-04 10:13 | 51.09119 | -0.59632 | 3987 ft | 179 kts | 77° |
| 2026-05-04 10:14 | 51.09396 | -0.57693 | 3971 ft | 179 kts | 75° |
| 2026-05-04 10:14 | 51.09671 | -0.55765 | 3983 ft | 178 kts | 77° |
| 2026-05-04 10:16 | 51.11578 | -0.42258 | 2909 ft | 178 kts | 77° |
| 2026-05-04 10:16 | 51.11848 | -0.40337 | 2676 ft | 178 kts | 77° |
| 2026-05-04 10:16 | 51.12116 | -0.38426 | 2434 ft | 176 kts | 76° |
| 2026-05-04 10:16 | 51.12382 | -0.36523 | 2203 ft | 175 kts | 77° |
| 2026-05-04 10:17 | 51.12639 | -0.34680 | 1976 ft | 169 kts | 76° |
| 2026-05-04 10:17 | 51.12889 | -0.32886 | 1749 ft | 165 kts | 76° |
| 2026-05-04 10:19 | 51.14513 | -0.21206 | 318 ft | 148 kts | 77° |
| 2026-05-04 10:19 | 51.14730 | -0.19642 | 217 ft | 134 kts | 78° |
| 2026-05-04 10:19 | 51.14901 | -0.18412 | 215 ft | 94 kts | 77° |
| 2026-05-04 10:19 | 51.14998 | -0.17717 | 211 ft | 41 kts | 72° |
| 2026-05-04 10:20 | 51.15067 | -0.17322 | 211 ft | 36 kts | 60° |
| 2026-05-04 10:20 | 51.15191 | -0.17229 | 210 ft | 7 kts | 300° |
| 2026-05-04 10:20 | 51.15204 | -0.17260 | 211 ft | 3 kts | 307° |
| 2026-05-04 10:20 | 51.15216 | -0.17282 | 207 ft | 3 kts | 313° |
| 2026-05-04 10:21 | 51.15220 | -0.17287 | 211 ft | 0 kts | 319° |
| 2026-05-04 10:21 | 51.15226 | -0.17295 | 213 ft | 4 kts | 320° |
| 2026-05-04 10:22 | 51.15324 | -0.17365 | 214 ft | 10 kts | 346° |
| 2026-05-04 10:22 | 51.15395 | -0.17391 | 205 ft | 11 kts | 348° |
| 2026-05-04 10:22 | 51.15471 | -0.17415 | 205 ft | 11 kts | 349° |
| 2026-05-04 10:23 | 51.15521 | -0.17435 | 210 ft | 1 kts | 346° |
| 2026-05-04 10:23 | 51.15522 | -0.17435 | 209 ft | 0 kts | 346° |
| 2026-05-04 10:26 | 51.15523 | -0.17435 | 209 ft | 1 kts | 346° |
| 2026-05-04 10:26 | 51.15540 | -0.17440 | 208 ft | 5 kts | 350° |
| 2026-05-04 10:26 | 51.15595 | -0.17369 | 207 ft | 10 kts | 73° |
| 2026-05-04 10:26 | 51.15605 | -0.17288 | 214 ft | 13 kts | 83° |
| 2026-05-04 10:27 | 51.15628 | -0.17151 | 205 ft | 13 kts | 74° |
| 2026-05-04 10:27 | 51.15649 | -0.17018 | 215 ft | 12 kts | 79° |
| 2026-05-04 10:27 | 51.15673 | -0.16932 | 210 ft | 7 kts | 34° |
| 2026-05-04 10:27 | 51.15714 | -0.16892 | 207 ft | 7 kts | 32° |
| 2026-05-04 10:28 | 51.15747 | -0.16861 | 209 ft | 3 kts | 31° |
| 2026-05-04 10:28 | 51.15749 | -0.16858 | 208 ft | 0 kts | 31° |